• Join FlightAware (Why Join?)
  • Login
  • US Flag 
01:00PM EDT


 

Airport Tracker/Info


-or-


 

Live Flight TrackerFlight Track Log ✈ SWA561 ✈ 07-Apr-2013 ✈ KELP - KLAX

Flight Track Log - Related Links

Times and Time Zones

All times are in EDT time to prevent confusion due to time zone crossing. See the SWA561 flight status page for this flight to view local times or setup timezone preferences in your user account.

Time Position Orientation Groundspeed Altitude Reporting Facility
EDT Latitude Longitude Course Direction KTS MPH feet Rate Location/Type
08:44PM 31.8014 -106.3981 233° Southwest 165 190 4,700  Level Albuquerque Center
08:44PM 31.7989 -106.4019 233° Southwest 172 198 5,100 2,160 Climbing Albuquerque Center
08:45PM 31.7744 -106.4603 244° Southwest 199 229 7,500 2,040 Climbing Albuquerque Center
08:46PM 31.7797 -106.5333 275° West 265 305 9,400 2,040 Climbing Albuquerque Center
08:47PM 31.8283 -106.6228 303° West 307 353 11,800 2,640 Climbing Albuquerque Center
08:48PM 31.8778 -106.7250 300° West 355 409 14,900 3,000 Climbing Albuquerque Center
08:50PM 31.9275 -106.8267 300° West 358 412 18,000 3,360 Climbing Albuquerque Center
08:51PM 31.9894 -106.9525 300° West 368 423 21,900 3,060 Climbing Albuquerque Center
08:52PM 32.0414 -107.0542 301° West 364 419 24,300 2,160 Climbing Albuquerque Center
08:53PM 32.0961 -107.1586 302° West 369 425 26,400 2,040 Climbing Albuquerque Center
08:54PM 32.1522 -107.2669 301° West 380 437 28,500 1,920 Climbing Albuquerque Center
08:55PM 32.2111 -107.3872 300° West 387 445 30,400 1,620 Climbing Albuquerque Center
08:56PM 32.2547 -107.5033 294° West 390 449 31,900 1,260 Climbing Albuquerque Center
08:57PM 32.2814 -107.6231 285° West 392 451 33,100 1,200 Climbing Albuquerque Center
08:58PM 32.3117 -107.7514 286° West 399 459 34,500 1,380 Climbing Albuquerque Center
08:59PM 32.3431 -107.8775 286° West 400 460 36,000 720 Climbing Albuquerque Center
09:00PM 32.3733 -107.9992 286° West 390 449 36,000  Level Albuquerque Center
09:01PM 32.4064 -108.1439 285° West 384 442 36,000  Level Albuquerque Center
09:02PM 32.4361 -108.2647 286° West 382 440 36,000  Level Albuquerque Center
09:03PM 32.4669 -108.3858 287° West 386 444 36,000  Level Albuquerque Center
09:04PM 32.4981 -108.5100 287° West 393 452 36,000  Level Albuquerque Center
09:05PM 32.5272 -108.6358 285° West 398 458 36,000  Level Albuquerque Center
09:06PM 32.5575 -108.7614 286° West 399 459 36,000  Level Albuquerque Center
09:07PM 32.5869 -108.8867 286° West 398 458 36,000  Level Albuquerque Center
09:08PM 32.6228 -109.0358 286° West 394 453 36,000  Level Albuquerque Center
09:09PM 32.6517 -109.1603 285° West 392 451 36,000  Level Albuquerque Center
09:10PM 32.6811 -109.2847 286° West 392 451 36,000  Level Albuquerque Center
09:11PM 32.7106 -109.4072 286° West 389 448 36,000  Level Albuquerque Center
09:12PM 32.7383 -109.5308 285° West 390 449 36,000  Level Albuquerque Center
09:13PM 32.7669 -109.6536 286° West 390 449 36,000  Level Albuquerque Center
09:14PM 32.7947 -109.7764 285° West 389 448 36,000  Level Albuquerque Center
09:15PM 32.8286 -109.9236 285° West 389 448 36,000  Level Albuquerque Center
09:16PM 32.8564 -110.0469 285° West 389 448 36,000  Level Albuquerque Center
09:17PM 32.8869 -110.1708 286° West 392 451 36,000  Level Albuquerque Center
09:18PM 32.9142 -110.2919 285° West 384 442 36,000  Level Albuquerque Center
09:19PM 32.9414 -110.4117 285° West 380 437 36,000  Level Albuquerque Center
09:20PM 32.9700 -110.5333 286° West 382 440 36,000  Level Albuquerque Center
09:21PM 33.0058 -110.6525 290° West 385 443 36,000  Level Albuquerque Center
09:22PM 33.0472 -110.7869 290° West 387 445 36,000  Level Albuquerque Center
09:23PM 33.0806 -110.9081 288° West 384 442 36,000  Level Albuquerque Center
09:24PM 33.1158 -111.0286 289° West 384 442 36,000  Level Albuquerque Center
09:25PM 33.1514 -111.1489 289° West 383 441 36,000  Level Albuquerque Center
09:26PM 33.1856 -111.2703 289° West 384 442 36,000  Level Albuquerque Center
09:27PM 33.2192 -111.3922 288° West 386 444 36,000  Level Albuquerque Center
09:28PM 33.2611 -111.5361 289° West 383 441 36,000  Level Albuquerque Center
09:29PM 33.2947 -111.6578 288° West 384 442 36,000  Level Albuquerque Center
09:31PM 33.3289 -111.7789 289° West 385 443 36,000  Level Albuquerque Center
09:32PM 33.3625 -111.8997 288° West 382 440 36,000  Level Albuquerque Center
09:33PM 33.3967 -112.0219 289° West 384 442 36,000  Level Albuquerque Center
09:34PM 33.4294 -112.1439 288° West 384 442 36,000  Level Albuquerque Center
09:35PM 33.4636 -112.2667 288° West 386 444 36,000  Level Albuquerque Center
09:36PM 33.4978 -112.3903 288° West 388 447 36,000  Level Albuquerque Center
09:37PM 33.5317 -112.5139 288° West 389 448 36,000  Level Albuquerque Center
09:38PM 33.5669 -112.6425 288° West 388 447 36,000  Level Albuquerque Center
09:39PM 33.5997 -112.7650 288° West 387 445 36,000  Level Albuquerque Center
09:40PM 33.6325 -112.8858 288° West 385 443 36,000  Level Albuquerque Center
09:41PM 33.6711 -113.0278 288° West 383 441 36,000  Level Albuquerque Center
09:42PM 33.7022 -113.1483 287° West 381 438 36,000  Level Albuquerque Center
09:43PM 33.7350 -113.2700 288° West 381 438 36,000  Level Albuquerque Center
09:44PM 33.7678 -113.3919 288° West 383 441 36,000  Level Albuquerque Center
09:45PM 33.7992 -113.5139 287° West 382 440 36,000  Level Albuquerque Center
09:46PM 33.8325 -113.6364 288° West 384 442 36,000  Level Albuquerque Center
09:47PM 33.8622 -113.7589 286° West 384 442 36,000  Level Albuquerque Center
09:48PM 33.8975 -113.9089 286° West 386 444 36,000  Level Albuquerque Center
09:50PM 33.9372 -114.2153 279° West 389 448 36,000  Level Los Angeles Center
09:51PM 33.9519 -114.3436 278° West 389 448 36,000  Level Los Angeles Center
09:52PM 33.9672 -114.4731 278° West 390 449 36,000 -540 Level Los Angeles Center
09:53PM 33.9850 -114.6278 278° West 387 445 34,900 -960 Descending Los Angeles Center
09:55PM 34.0003 -114.7544 278° West 384 442 33,900 -960 Descending Los Angeles Center
09:56PM 34.0172 -114.9119 277° West 394 453 32,800 -1,020 Descending Los Angeles Center
09:57PM 34.0339 -115.0467 279° West 405 466 31,800 -1,020 Descending Los Angeles Center
09:58PM 34.0475 -115.1775 277° West 397 457 30,700 -900 Descending Los Angeles Center
09:59PM 34.0625 -115.3064 278° West 389 448 30,000 -360 Descending Los Angeles Center
10:00PM 34.0803 -115.4611 278° West 390 449 30,000  Level Los Angeles Center
10:01PM 34.0928 -115.5889 277° West 387 445 30,000  Level Los Angeles Center
10:02PM 34.1067 -115.7178 277° West 390 449 30,000  Level Los Angeles Center
10:03PM 34.1014 -115.8461 267° West 387 445 30,000  Level Los Angeles Center
10:04PM 34.0822 -115.9717 260° West 384 442 30,000  Level Los Angeles Center
10:05PM 34.0631 -116.0978 260° West 384 442 30,000 -600 Level Los Angeles Center
10:06PM 34.0403 -116.2506 260° West 387 445 28,800 -1,080 Descending Los Angeles Center
10:07PM 34.0256 -116.3769 262° West 382 440 27,800 -1,020 Descending Los Angeles Center
10:08PM 34.0150 -116.5003 264° West 374 430 26,800 -1,080 Descending Los Angeles Center
10:09PM 34.0025 -116.6239 263° West 374 430 25,700 -1,560 Descending Los Angeles Center
10:10PM 33.9908 -116.7439 263° West 367 422 23,600 -2,040 Descending Los Angeles Center
10:11PM 33.9797 -116.8606 263° West 356 410 21,500 -2,160 Descending Los Angeles Center
10:12PM 33.9667 -116.9333 258° West 340 391 20,400 -2,280 Descending Southern California TRACON
10:13PM 33.9667 -117.0500 270° West 334 384 18,200 -1,740 Descending Southern California TRACON
10:14PM 33.9500 -117.1500 259° West 329 379 17,000 -900 Descending Southern California TRACON
10:15PM 33.9333 -117.2667 260° West 325 374 16,500 -1,200 Descending Southern California TRACON
10:16PM 33.9333 -117.3667 270° West 328 377 14,600 -1,860 Descending Southern California TRACON
10:17PM 33.9667 -117.4667 292° West 313 360 12,800 -1,560 Descending Southern California TRACON
10:18PM 34.0000 -117.5500 296° West 307 353 11,500 -1,320 Descending Southern California TRACON
10:19PM 34.0167 -117.6500 281° West 316 364 10,200 -1,200 Descending Southern California TRACON
10:20PM 34.0000 -117.7500 259° West 266 306 9,100 -1,200 Descending Southern California TRACON
10:21PM 33.9833 -117.8333 256° West 265 305 7,900 -1,260 Descending Southern California TRACON
10:22PM 33.9833 -117.9333 270° West 257 296 6,600 -1,080 Descending Southern California TRACON
10:23PM 33.9667 -118.0167 256° West 241 277 5,800 -900 Descending Southern California TRACON
10:24PM 33.9667 -118.0833 270° West 222 255 4,900 -900 Descending Southern California TRACON
10:25PM 33.9622 -118.1372 264° West 225 259 4,100 -1,140 Descending Los Angeles Center
10:26PM 33.9539 -118.2200 263° West 213 245 2,700 -1,140 Descending Los Angeles Center
10:27PM 33.9486 -118.2789 264° West 194 223 1,800 -840 Descending Los Angeles Center
10:28PM 33.9436 -118.3281 263° West 170 196 1,000 -840 Descending Los Angeles Center
10:29PM 33.9392 -118.3758 264° West 154 177 200 -480 Descending Los Angeles Center
10:30PM 33.9342 -118.4225 263° West 152 175 100 -120 Descending Los Angeles Center